createdAt,value
2022-12-01T00:01:15.718Z,102751.44
2022-12-01T00:03:43.823Z,102755.34
2022-12-01T00:06:12.958Z,102749.56
2022-12-01T00:08:40.714Z,102752.28
2022-12-01T00:11:09.637Z,102744.97
2022-12-01T00:13:37.813Z,102746.56
2022-12-01T00:16:14.741Z,102746.91
2022-12-01T00:18:42.833Z,102750.34
2022-12-01T00:21:14.696Z,102751.91
2022-12-01T00:23:44.592Z,102748.81
2022-12-01T00:26:12.427Z,102741.06
2022-12-01T00:28:40.360Z,102744.56
2022-12-01T00:31:08.747Z,102747.25
2022-12-01T00:33:38.055Z,102750.41
2022-12-01T00:36:06.836Z,102755.09
2022-12-01T00:38:34.858Z,102757.03
2022-12-01T00:41:02.728Z,102752.81
2022-12-01T00:43:30.459Z,102748.94
2022-12-01T00:45:58.307Z,102744.72
2022-12-01T00:48:26.202Z,102738.16
2022-12-01T00:50:56.037Z,102738.97
2022-12-01T00:53:24.578Z,102739.38
2022-12-01T00:55:53.881Z,102749.38
2022-12-01T00:58:21.745Z,102750.22
2022-12-01T01:00:49.941Z,102750.22
2022-12-01T01:03:17.800Z,102747.16
2022-12-01T01:05:45.550Z,102746.78
2022-12-01T01:08:15.867Z,102748.75
2022-12-01T01:10:45.132Z,102754.22
2022-12-01T01:13:13.686Z,102754.97
2022-12-01T01:15:41.804Z,102754.94
2022-12-01T01:18:12.372Z,102764.63
2022-12-01T01:20:40.294Z,102759.97
2022-12-01T01:23:08.211Z,102771.59
2022-12-01T01:25:37.308Z,102766.16
2022-12-01T01:28:05.429Z,102766.19
2022-12-01T01:30:33.223Z,102766.19
2022-12-01T01:33:01.007Z,102756.91
2022-12-01T01:35:28.765Z,102758.06
2022-12-01T01:37:56.493Z,102758.41
2022-12-01T01:40:24.407Z,102765.78
2022-12-01T01:42:53.453Z,102762.28
2022-12-01T01:45:25.138Z,102769.28
2022-12-01T01:47:55.219Z,102770.47
2022-12-01T01:50:27.905Z,102768.56
2022-12-01T01:53:00.384Z,102765.50
2022-12-01T01:55:29.451Z,102765.09
2022-12-01T01:57:59.338Z,102774.38
2022-12-01T02:00:27.319Z,102768.56
2022-12-01T02:02:57.545Z,102774.75
2022-12-01T02:05:27.824Z,102768.94
2022-12-01T02:07:58.272Z,102767.34
2022-12-01T02:10:36.716Z,102761.53
2022-12-01T02:13:16.320Z,102771.59
2022-12-01T02:15:52.977Z,102762.34
2022-12-01T02:18:26.987Z,102753.81
2022-12-01T02:21:20.198Z,102759.22
2022-12-01T02:24:36.777Z,102751.84
2022-12-01T02:27:11.467Z,102747.22
2022-12-01T02:30:01.264Z,102759.19
2022-12-01T02:32:35.896Z,102758.41
2022-12-01T02:35:13.844Z,102755.69
2022-12-01T02:37:48.918Z,102753.38
2022-12-01T02:40:21.637Z,102753.38
2022-12-01T02:42:56.483Z,102756.50
2022-12-01T02:45:34.233Z,102750.25
2022-12-01T02:48:05.837Z,102759.13
2022-12-01T02:50:36.715Z,102762.22
2022-12-01T02:53:07.479Z,102767.66
2022-12-01T02:55:35.383Z,102756.81
2022-12-01T02:58:03.114Z,102762.22
2022-12-01T03:00:32.049Z,102763.34
2022-12-01T03:03:21.444Z,102767.66
2022-12-01T03:05:55.580Z,102764.94
2022-12-01T03:08:30.734Z,102764.88
2022-12-01T03:10:59.628Z,102766.06
2022-12-01T03:13:43.435Z,102762.63
2022-12-01T03:16:16.683Z,102767.25
2022-12-01T03:18:51.545Z,102763.81
2022-12-01T03:21:24.576Z,102775.44
2022-12-01T03:23:59.533Z,102757.63
2022-12-01T03:26:32.282Z,102762.22
2022-12-01T03:29:04.871Z,102763.00
2022-12-01T03:31:37.615Z,102764.53
2022-12-01T03:34:14.208Z,102766.47
2022-12-01T03:36:46.303Z,102766.88
2022-12-01T03:39:19.992Z,102763.75
2022-12-01T03:41:53.030Z,102765.66
2022-12-01T03:44:26.300Z,102766.06
2022-12-01T03:46:56.477Z,102761.00
2022-12-01T03:49:26.923Z,102768.78
2022-12-01T03:52:07.273Z,102768.03
2022-12-01T03:54:45.297Z,102766.88
2022-12-01T03:57:18.759Z,102765.69
2022-12-01T03:59:47.394Z,102758.69
2022-12-01T04:02:15.683Z,102762.94
2022-12-01T04:04:44.835Z,102765.25
2022-12-01T04:07:13.531Z,102767.53
2022-12-01T04:09:42.038Z,102772.19
2022-12-01T04:12:29.887Z,102763.34
2022-12-01T04:14:58.300Z,102763.69
2022-12-01T04:17:26.240Z,102767.19
2022-12-01T04:19:55.492Z,102772.94
2022-12-01T04:22:23.457Z,102769.06
2022-12-01T04:24:51.194Z,102769.09
2022-12-01T04:27:19.285Z,102771.00
2022-12-01T04:29:47.533Z,102773.28
2022-12-01T04:32:15.803Z,102774.44
2022-12-01T04:34:43.676Z,102779.78
2022-12-01T04:37:13.095Z,102776.63
2022-12-01T04:39:42.038Z,102776.56
2022-12-01T04:42:10.156Z,102782.00
2022-12-01T04:44:38.150Z,102785.53
2022-12-01T04:47:07.266Z,102777.47
2022-12-01T04:49:37.248Z,102775.94
2022-12-01T04:52:05.398Z,102780.19
2022-12-01T04:54:34.576Z,102770.94
2022-12-01T04:57:02.301Z,102775.22
2022-12-01T04:59:30.080Z,102772.88
2022-12-01T05:01:57.904Z,102767.47
2022-12-01T05:04:25.726Z,102765.13
2022-12-01T05:06:55.538Z,102775.94
2022-12-01T05:09:23.338Z,102767.81
2022-12-01T05:11:52.442Z,102774.81
2022-12-01T05:14:20.211Z,102783.72
2022-12-01T05:16:48.068Z,102770.19
2022-12-01T05:19:33.407Z,102777.47
2022-12-01T05:22:01.400Z,102776.69
2022-12-01T05:24:29.482Z,102772.78
2022-12-01T05:26:58.559Z,102775.41
2022-12-01T05:29:26.324Z,102781.56
2022-12-01T05:31:54.187Z,102783.84
2022-12-01T05:34:21.935Z,102781.91
2022-12-01T05:36:49.670Z,102791.63
2022-12-01T05:39:17.588Z,102797.47
2022-12-01T05:41:45.386Z,102791.28
2022-12-01T05:44:14.465Z,102789.41
2022-12-01T05:46:42.194Z,102782.81
2022-12-01T05:49:09.929Z,102780.13
2022-12-01T05:51:37.686Z,102783.22
2022-12-01T05:54:05.669Z,102787.03
2022-12-01T05:56:33.475Z,102785.47
2022-12-01T05:59:01.229Z,102785.81
2022-12-01T06:01:30.355Z,102783.94
2022-12-01T06:03:58.116Z,102772.69
2022-12-01T06:06:25.939Z,102774.91
2022-12-01T06:08:53.679Z,102776.78
2022-12-01T06:11:21.419Z,102777.13
2022-12-01T06:13:49.185Z,102768.19
2022-12-01T06:16:16.941Z,102770.38
2022-12-01T06:18:46.110Z,102771.13
2022-12-01T06:21:13.858Z,102778.84
2022-12-01T06:23:41.636Z,102781.91
2022-12-01T06:26:09.515Z,102783.81
2022-12-01T06:28:37.317Z,102791.94
2022-12-01T06:31:05.231Z,102787.63
2022-12-01T06:33:33.157Z,102781.78
2022-12-01T06:36:03.993Z,102783.31
2022-12-01T06:38:33.308Z,102782.13
2022-12-01T06:41:01.092Z,102781.69
2022-12-01T06:43:29.184Z,102791.69
2022-12-01T06:46:01.670Z,102793.97
2022-12-01T06:48:30.153Z,102792.75
2022-12-01T06:50:58.561Z,102795.81
2022-12-01T06:53:28.508Z,102798.09
2022-12-01T06:56:00.275Z,102795.34
2022-12-01T06:58:28.463Z,102801.13
2022-12-01T07:00:57.351Z,102806.88
2022-12-01T07:03:25.523Z,102809.56
2022-12-01T07:05:58.539Z,102809.50
2022-12-01T07:08:28.435Z,102818.69
2022-12-01T07:11:00.368Z,102810.78
2022-12-01T07:13:33.099Z,102812.31
2022-12-01T07:16:03.136Z,102819.88
2022-12-01T07:18:31.636Z,102817.53
2022-12-01T07:21:00.951Z,102820.22
2022-12-01T07:23:33.254Z,102827.22
2022-12-01T07:26:01.955Z,102829.53
2022-12-01T07:28:30.191Z,102836.50
2022-12-01T07:31:03.178Z,102839.56
2022-12-01T07:33:31.195Z,102844.19
2022-12-01T07:35:59.282Z,102850.72
2022-12-01T07:38:30.443Z,102849.19
2022-12-01T07:41:03.326Z,102849.94
2022-12-01T07:43:32.200Z,102852.31
2022-12-01T07:46:08.736Z,102858.47
2022-12-01T07:48:37.423Z,102856.63
2022-12-01T07:51:05.575Z,102847.00
2022-12-01T07:53:34.904Z,102854.38
2022-12-01T07:56:07.086Z,102857.94
2022-12-01T07:58:36.498Z,102856.84
2022-12-01T08:01:08.092Z,102856.97
2022-12-01T08:03:36.213Z,102859.78
2022-12-01T08:06:04.792Z,102869.50
2022-12-01T08:08:35.307Z,102868.47
2022-12-01T08:11:05.136Z,102875.84
2022-12-01T08:13:33.008Z,102868.09
2022-12-01T08:16:05.588Z,102858.16
2022-12-01T08:18:35.407Z,102873.34
2022-12-01T08:21:03.391Z,102873.09
2022-12-01T08:23:31.356Z,102870.06
2022-12-01T08:26:02.912Z,102875.56
2022-12-01T08:28:30.880Z,102875.22
2022-12-01T08:30:58.774Z,102877.25
2022-12-01T08:33:26.581Z,102881.59
2022-12-01T08:35:54.326Z,102880.50
2022-12-01T08:38:22.094Z,102889.88
2022-12-01T08:40:49.811Z,102889.53
2022-12-01T08:43:49.322Z,102888.41
2022-12-01T08:46:07.816Z,102878.75
2022-12-01T08:48:36.020Z,102892.72
2022-12-01T08:51:05.959Z,102885.06
2022-12-01T08:53:35.436Z,102887.06
2022-12-01T08:56:05.636Z,102880.50
2022-12-01T08:58:34.812Z,102884.34
2022-12-01T09:01:04.020Z,102882.53
2022-12-01T09:03:32.304Z,102881.09
2022-12-01T09:06:05.557Z,102883.50
2022-12-01T09:08:34.091Z,102883.91
2022-12-01T09:11:04.524Z,102884.75
2022-12-01T09:13:34.454Z,102886.81
2022-12-01T09:16:04.306Z,102878.38
2022-12-01T09:18:32.624Z,102883.16
2022-12-01T09:21:00.890Z,102886.72
2022-12-01T09:23:28.635Z,102880.97
2022-12-01T09:25:56.364Z,102887.66
2022-12-01T09:28:24.117Z,102886.09
2022-12-01T09:30:53.236Z,102887.69
2022-12-01T09:33:20.986Z,102887.34
2022-12-01T09:35:48.821Z,102877.28
2022-12-01T09:38:16.584Z,102878.13
2022-12-01T09:40:45.069Z,102888.75
2022-12-01T09:43:17.627Z,102882.25
2022-12-01T09:45:52.192Z,102880.34
2022-12-01T09:48:27.668Z,102877.28
2022-12-01T09:50:56.537Z,102873.81
2022-12-01T09:53:28.838Z,102872.63
2022-12-01T09:56:04.862Z,102867.94
2022-12-01T09:58:35.508Z,102860.50
2022-12-01T10:01:06.584Z,102851.94
2022-12-01T10:03:45.555Z,102848.78
2022-12-01T10:06:27.408Z,102852.63
2022-12-01T10:09:06.494Z,102850.59
2022-12-01T10:11:37.175Z,102844.56
2022-12-01T10:14:06.878Z,102844.88
2022-12-01T10:16:40.699Z,102854.81
2022-12-01T10:19:16.336Z,102860.81
2022-12-01T10:22:01.619Z,102854.91
2022-12-01T10:24:40.310Z,102865.38
2022-12-01T10:27:18.424Z,102852.31
2022-12-01T10:29:49.591Z,102857.78
2022-12-01T10:32:20.081Z,102860.09
2022-12-01T10:34:49.579Z,102858.97
2022-12-01T10:37:21.460Z,102852.50
2022-12-01T10:39:51.779Z,102853.91
2022-12-01T10:42:27.504Z,102856.00
2022-12-01T10:44:57.351Z,102859.94
2022-12-01T10:47:28.036Z,102862.59
2022-12-01T10:49:57.180Z,102861.84
2022-12-01T10:52:33.897Z,102854.00
2022-12-01T10:55:01.977Z,102857.16
2022-12-01T10:57:32.166Z,102859.06
2022-12-01T11:00:06.257Z,102860.66
2022-12-01T11:02:34.583Z,102853.72
2022-12-01T11:05:08.262Z,102849.53
2022-12-01T11:07:43.921Z,102853.03
2022-12-01T11:10:18.211Z,102844.47
2022-12-01T11:12:53.396Z,102849.75
2022-12-01T11:15:27.705Z,102844.44
2022-12-01T11:18:00.859Z,102841.97
2022-12-01T11:20:34.729Z,102838.75
2022-12-01T11:23:25.336Z,102845.03
2022-12-01T11:26:12.314Z,102839.56
2022-12-01T11:28:52.172Z,102831.44
2022-12-01T11:31:21.585Z,102833.34
2022-12-01T11:33:53.033Z,102827.44
2022-12-01T11:36:27.584Z,102831.50
2022-12-01T11:39:01.442Z,102822.66
2022-12-01T11:41:36.643Z,102817.38
2022-12-01T11:44:22.364Z,102813.47
2022-12-01T11:47:21.625Z,102814.16
2022-12-01T11:49:47.326Z,102820.78
2022-12-01T11:52:24.917Z,102813.69
2022-12-01T11:54:58.186Z,102807.53
2022-12-01T11:57:34.273Z,102805.47
2022-12-01T12:00:04.032Z,102798.88
2022-12-01T12:02:42.257Z,102802.03
2022-12-01T12:05:46.356Z,102787.97
2022-12-01T12:08:27.685Z,102785.59
2022-12-01T12:11:06.679Z,102786.69
2022-12-01T12:13:53.323Z,102789.84
2022-12-01T12:16:34.211Z,102793.28
2022-12-01T12:19:15.878Z,102788.97
2022-12-01T12:21:51.865Z,102782.66
2022-12-01T12:24:41.563Z,102791.44
2022-12-01T12:27:17.216Z,102787.22
2022-12-01T12:29:58.415Z,102786.88
2022-12-01T12:32:41.084Z,102785.97
2022-12-01T12:35:25.379Z,102783.72
2022-12-01T12:38:07.063Z,102784.84
2022-12-01T12:40:43.548Z,102789.06
2022-12-01T12:43:23.355Z,102793.63
2022-12-01T12:46:12.943Z,102791.56
2022-12-01T12:51:55.177Z,102783.41
2022-12-01T12:54:27.674Z,102778.34
2022-12-01T12:57:01.790Z,102775.84
2022-12-01T12:59:34.806Z,102771.22
2022-12-01T13:02:13.861Z,102770.72
2022-12-01T13:04:55.312Z,102761.13
2022-12-01T13:07:36.797Z,102763.19
2022-12-01T13:10:15.640Z,102758.00
2022-12-01T13:12:56.090Z,102758.63
2022-12-01T13:15:26.177Z,102762.50
2022-12-01T13:17:58.305Z,102757.88
2022-12-01T13:20:28.792Z,102771.56
2022-12-01T13:22:58.799Z,102760.72
2022-12-01T13:25:30.586Z,102762.25
2022-12-01T13:28:01.988Z,102760.13
2022-12-01T13:30:30.133Z,102756.47
2022-12-01T13:33:03.421Z,102763.13
2022-12-01T13:35:34.700Z,102760.03
2022-12-01T13:38:22.003Z,102747.63
2022-12-01T13:40:50.703Z,102750.91
2022-12-01T13:43:22.515Z,102756.63
2022-12-01T13:45:51.176Z,102752.78
2022-12-01T13:48:30.554Z,102752.16
2022-12-01T13:51:01.252Z,102757.72
2022-12-01T13:53:31.768Z,102744.06
2022-12-01T13:56:05.655Z,102743.47
2022-12-01T13:58:47.442Z,102744.00
2022-12-01T14:01:47.229Z,102748.94
2022-12-01T14:04:30.668Z,102746.44
2022-12-01T14:07:27.567Z,102734.53
2022-12-01T14:09:59.718Z,102734.38
2022-12-01T14:12:34.467Z,102732.81
2022-12-01T14:15:21.555Z,102739.97
2022-12-01T14:18:00.266Z,102724.94
2022-12-01T14:20:29.534Z,102724.09
2022-12-01T14:23:13.326Z,102725.47
2022-12-01T14:25:42.608Z,102727.56
2022-12-01T14:28:18.241Z,102729.06
2022-12-01T14:31:08.808Z,102723.22
2022-12-01T14:34:02.293Z,102728.78
2022-12-01T14:36:40.467Z,102726.53
2022-12-01T14:39:16.039Z,102729.31
2022-12-01T14:41:48.590Z,102730.09
2022-12-01T14:44:25.195Z,102728.88
2022-12-01T14:46:59.541Z,102741.34
2022-12-01T14:49:32.503Z,102739.44
2022-12-01T14:52:05.283Z,102738.25
2022-12-01T14:54:40.196Z,102748.53
2022-12-01T14:57:12.322Z,102742.06
2022-12-01T14:59:43.017Z,102735.63
2022-12-01T15:02:13.225Z,102734.22
2022-12-01T15:05:09.626Z,102735.94
2022-12-01T15:07:39.631Z,102737.22
2022-12-01T15:10:16.396Z,102741.53
2022-12-01T15:12:44.208Z,102734.59
2022-12-01T15:15:19.810Z,102737.75
2022-12-01T15:17:55.400Z,102730.44
2022-12-01T15:20:33.059Z,102725.78
2022-12-01T15:23:03.086Z,102727.38
2022-12-01T15:25:35.639Z,102721.56
2022-12-01T15:28:12.714Z,102728.28
2022-12-01T15:30:41.002Z,102729.84
2022-12-01T15:33:16.934Z,102732.56
2022-12-01T15:35:47.139Z,102733.00
2022-12-01T15:38:18.186Z,102735.38
2022-12-01T15:43:38.054Z,102740.53
2022-12-01T15:46:13.983Z,102749.09
2022-12-01T15:48:44.125Z,102753.78
2022-12-01T15:51:17.005Z,102746.41
2022-12-01T15:53:50.314Z,102743.66
2022-12-01T15:56:25.596Z,102752.53
2022-12-01T15:58:56.595Z,102750.22
2022-12-01T16:01:31.419Z,102755.22
2022-12-01T16:04:04.256Z,102760.22
2022-12-01T16:06:34.953Z,102752.81
2022-12-01T16:09:05.645Z,102763.56
2022-12-01T16:11:33.668Z,102752.63
2022-12-01T16:14:04.716Z,102758.75
2022-12-01T16:16:39.176Z,102761.44
2022-12-01T16:19:25.725Z,102755.22
2022-12-01T16:21:57.017Z,102758.69
2022-12-01T16:24:29.607Z,102756.34
2022-12-01T16:27:01.276Z,102761.81
2022-12-01T16:29:31.372Z,102760.75
2022-12-01T16:32:20.266Z,102760.06
2022-12-01T16:34:51.852Z,102762.41
2022-12-01T16:37:19.888Z,102758.50
2022-12-01T16:39:47.777Z,102764.75
2022-12-01T16:42:17.405Z,102768.25
2022-12-01T16:44:46.526Z,102762.06
2022-12-01T16:47:18.207Z,102757.41
2022-12-01T16:49:46.067Z,102757.00
2022-12-01T16:52:43.236Z,102755.44
2022-12-01T16:55:03.381Z,102753.38
2022-12-01T16:57:31.115Z,102754.56
2022-12-01T16:59:58.919Z,102750.72
2022-12-01T17:02:26.799Z,102747.19
2022-12-01T17:04:54.616Z,102752.25
2022-12-01T17:07:23.730Z,102755.31
2022-12-01T17:09:51.566Z,102745.19
2022-12-01T17:12:19.350Z,102752.50
2022-12-01T17:14:47.173Z,102750.59
2022-12-01T17:17:14.939Z,102749.38
2022-12-01T17:19:42.711Z,102747.44
2022-12-01T17:22:10.473Z,102746.28
2022-12-01T17:24:39.780Z,102742.69
2022-12-01T17:27:07.512Z,102748.38
2022-12-01T17:29:35.272Z,102752.16
2022-12-01T17:32:03.017Z,102750.53
2022-12-01T17:34:30.758Z,102754.69
2022-12-01T17:36:58.753Z,102748.38
2022-12-01T17:39:26.512Z,102752.16
2022-12-01T17:41:56.251Z,102755.19
2022-12-01T17:44:24.045Z,102750.94
2022-12-01T17:46:51.909Z,102747.53
2022-12-01T17:49:19.783Z,102747.06
2022-12-01T17:51:48.050Z,102750.47
2022-12-01T17:54:16.029Z,102750.41
2022-12-01T17:56:43.921Z,102742.22
2022-12-01T17:59:13.055Z,102745.63
2022-12-01T18:01:42.076Z,102742.63
2022-12-01T18:04:11.817Z,102744.59
2022-12-01T18:06:39.635Z,102746.19
2022-12-01T18:09:07.708Z,102747.34
2022-12-01T18:11:35.768Z,102741.81
2022-12-01T18:14:03.512Z,102742.84
2022-12-01T18:16:33.483Z,102738.59
2022-12-01T18:19:02.032Z,102741.28
2022-12-01T18:21:30.105Z,102735.06
2022-12-01T18:23:59.531Z,102740.47
2022-12-01T18:26:28.952Z,102741.56
2022-12-01T18:28:58.807Z,102739.28
2022-12-01T18:31:27.193Z,102734.97
2022-12-01T18:34:02.575Z,102742.59
2022-12-01T18:36:32.100Z,102737.75
2022-12-01T18:39:01.687Z,102736.50
2022-12-01T18:41:29.766Z,102740.28
2022-12-01T18:43:57.544Z,102746.81
2022-12-01T18:46:25.341Z,102744.50
2022-12-01T18:48:59.398Z,102740.19
2022-12-01T18:51:29.576Z,102752.94
2022-12-01T18:53:59.021Z,102746.03
2022-12-01T18:56:27.207Z,102735.63
2022-12-01T18:58:55.864Z,102749.50
2022-12-01T19:01:25.974Z,102740.25
2022-12-01T19:03:55.283Z,102754.16
2022-12-01T19:06:23.660Z,102747.22
2022-12-01T19:08:52.817Z,102754.22
2022-12-01T19:11:21.055Z,102738.06
2022-12-01T19:13:49.361Z,102745.88
2022-12-01T19:16:19.770Z,102745.94
2022-12-01T19:18:47.698Z,102748.59
2022-12-01T19:21:17.556Z,102750.88
2022-12-01T19:23:45.867Z,102743.59
2022-12-01T19:26:16.942Z,102734.06
2022-12-01T19:28:45.730Z,102734.94
2022-12-01T19:31:17.635Z,102739.28
2022-12-01T19:33:45.738Z,102735.53
2022-12-01T19:36:14.795Z,102740.63
2022-12-01T19:38:42.834Z,102741.09
2022-12-01T19:41:10.688Z,102743.88
2022-12-01T19:43:40.019Z,102743.47
2022-12-01T19:46:09.266Z,102746.66
2022-12-01T19:48:37.585Z,102742.84
2022-12-01T19:51:05.604Z,102737.44
2022-12-01T19:53:34.270Z,102738.53
2022-12-01T19:56:03.148Z,102745.50
2022-12-01T19:58:34.140Z,102737.78
2022-12-01T20:01:08.149Z,102747.84
2022-12-01T20:03:36.323Z,102751.72
2022-12-01T20:06:05.693Z,102749.06
2022-12-01T20:08:36.016Z,102742.13
2022-12-01T20:11:05.148Z,102743.69
2022-12-01T20:13:33.803Z,102742.56
2022-12-01T20:16:07.709Z,102740.63
2022-12-01T20:18:35.883Z,102739.50
2022-12-01T20:21:05.813Z,102739.06
2022-12-01T20:23:33.978Z,102734.44
2022-12-01T20:26:02.436Z,102741.38
2022-12-01T20:28:30.987Z,102739.81
2022-12-01T20:30:59.332Z,102733.25
2022-12-01T20:33:28.773Z,102736.78
2022-12-01T20:35:56.576Z,102741.81
2022-12-01T20:38:27.453Z,102743.38
2022-12-01T20:40:55.851Z,102743.78
2022-12-01T20:43:23.653Z,102736.81
2022-12-01T20:45:51.493Z,102748.78
2022-12-01T20:48:19.827Z,102745.34
2022-12-01T20:50:48.982Z,102750.00
2022-12-01T20:53:17.050Z,102743.78
2022-12-01T20:55:44.865Z,102738.38
2022-12-01T20:58:12.754Z,102738.78
2022-12-01T21:00:44.171Z,102737.22
2022-12-01T21:03:12.394Z,102736.81
2022-12-01T21:05:40.721Z,102733.31
2022-12-01T21:08:12.222Z,102727.50
2022-12-01T21:10:44.703Z,102723.19
2022-12-01T21:13:36.759Z,102734.84
2022-12-01T21:16:08.320Z,102728.59
2022-12-01T21:18:46.157Z,102727.78
2022-12-01T21:21:22.475Z,102718.53
2022-12-01T21:24:01.836Z,102718.59
2022-12-01T21:26:29.596Z,102720.19
2022-12-01T21:29:00.684Z,102720.56
2022-12-01T21:31:29.077Z,102711.59
2022-12-01T21:33:57.430Z,102708.88
2022-12-01T21:36:29.862Z,102704.28
2022-12-01T21:39:12.249Z,102701.59
2022-12-01T21:41:47.765Z,102699.66
2022-12-01T21:44:18.033Z,102702.38
2022-12-01T21:46:46.241Z,102700.47
2022-12-01T21:49:16.898Z,102701.53
2022-12-01T21:51:45.208Z,102696.16
2022-12-01T21:54:17.692Z,102695.75
2022-12-01T21:56:45.684Z,102704.69
2022-12-01T21:59:19.826Z,102698.53
2022-12-01T22:01:48.253Z,102693.53
2022-12-01T22:04:21.559Z,102693.94
2022-12-01T22:06:52.356Z,102693.16
2022-12-01T22:09:25.274Z,102694.34
2022-12-01T22:11:55.407Z,102691.66
2022-12-01T22:14:25.156Z,102687.00
2022-12-01T22:16:56.780Z,102689.34
2022-12-01T22:19:28.848Z,102689.34
2022-12-01T22:22:02.414Z,102697.84
2022-12-01T22:24:42.276Z,102688.53
2022-12-01T22:27:29.720Z,102685.81
2022-12-01T22:30:00.323Z,102688.13
2022-12-01T22:32:34.807Z,102686.56
2022-12-01T22:35:21.422Z,102681.94
2022-12-01T22:37:51.439Z,102674.16
2022-12-01T22:40:41.716Z,102679.94
2022-12-01T22:43:38.469Z,102677.22
2022-12-01T22:46:21.917Z,102683.81
2022-12-01T22:48:52.717Z,102677.59
2022-12-01T22:51:29.750Z,102679.53
2022-12-01T22:54:07.284Z,102679.47
2022-12-01T22:56:40.319Z,102676.00
2022-12-01T22:59:15.872Z,102678.75
2022-12-01T23:01:49.065Z,102688.41
2022-12-01T23:04:23.230Z,102677.59
2022-12-01T23:07:03.433Z,102676.75
2022-12-01T23:09:38.979Z,102674.41
2022-12-01T23:12:22.259Z,102674.41
2022-12-01T23:14:52.464Z,102670.16
2022-12-01T23:17:22.637Z,102670.88
2022-12-01T23:19:52.619Z,102669.75
2022-12-01T23:22:21.116Z,102660.88
2022-12-01T23:24:49.159Z,102669.34
2022-12-01T23:27:19.091Z,102661.59
2022-12-01T23:29:46.882Z,102656.88
2022-12-01T23:32:14.639Z,102661.91
2022-12-01T23:34:42.416Z,102658.00
2022-12-01T23:37:28.739Z,102668.47
2022-12-01T23:39:56.973Z,102661.81
2022-12-01T23:42:26.065Z,102662.63
2022-12-01T23:44:54.107Z,102659.13
2022-12-01T23:47:25.724Z,102662.56
2022-12-01T23:49:59.084Z,102660.63
2022-12-01T23:52:33.237Z,102647.03
2022-12-01T23:55:01.164Z,102644.69
2022-12-01T23:57:31.629Z,102653.25
